Terminal Aerodrome Forecast
Issued by NWS

Current Version | Previous Version | Text Only | Print | Product List | Glossary On
Versions: 1 2 3 4 5 6 7 8 9 10 11 12 13 14 15 16 17 18 19 20 21 22 23 24
000 FTUS41 KOKX 021400 AAA TAFHPN TAF AMD KHPN 021433Z 0215/0312 03008KT P6SM SCT025 BKN040 TEMPO 0215/0217 BKN025 FM021900 03006KT P6SM SCT035 BKN040 FM022100 04005KT P6SM FEW035 BKN080 FM030000 01005KT P6SM SCT030 SCT080 AMD NOT SKED=

USA.gov is the U.S. government's official web portal to all federal, state and local government web resources and services.